This is the latest recevied weather packets stored in our database for station/object K3HW. If no packets are shown the sender has not sent any weather packets the latest 10 day(s).
| Time | Temp. | Humidity | Pressure | Rain* | Wind** | Luminosity | Snow |
|---|---|---|---|---|---|---|---|
| 1777736889 | 12.78° C | 54% | 1016.7 hPa | 0 mm | - | 306 W/m² | - |
| 1777736276 | 12.78° C | 53% | 1017 hPa | 0 mm | - | 325 W/m² | - |
| 1777735972 | 12.78° C | 52% | 1016.8 hPa | 0 mm | - | 365 W/m² | - |
| 1777735669 | 12.22° C | 52% | 1016.8 hPa | 0 mm | - | 407 W/m² | - |
| 1777735367 | 12.22° C | 51% | 1016.7 hPa | 0 mm | - | 415 W/m² | - |
| 1777735064 | 13.33° C | 52% | 1016.6 hPa | 0 mm | - | 326 W/m² | - |
| 1777734761 | 12.78° C | 57% | 1016.8 hPa | 0 mm | - | 271 W/m² | - |
| 1777734459 | 12.22° C | 55% | 1016.8 hPa | 0 mm | - | 457 W/m² | - |
| 1777734156 | 11.67° C | 57% | 1016.7 hPa | 0 mm | - | 221 W/m² | - |
| 1777733852 | 11.67° C | 58% | 1016.8 hPa | 0 mm | - | 187 W/m² | - |
| 1777733548 | 11.67° C | 58% | 1017 hPa | 0 mm | - | 170 W/m² | - |
| 1777733245 | 11.67° C | 58% | 1016.9 hPa | 0 mm | - | 145 W/m² | - |
| 1777732942 | 11.67° C | 59% | 1016.8 hPa | 0 mm | - | 144 W/m² | - |
| 1777732638 | 11.11° C | 59% | 1016.8 hPa | 0 mm | - | 143 W/m² | - |
| 1777732336 | 11.67° C | 58% | 1016.8 hPa | 0 mm | - | 141 W/m² | - |
| 1777732033 | 11.11° C | 60% | 1016.5 hPa | 0 mm | - | 142 W/m² | - |
| 1777731729 | 10.56° C | 59% | 1016.7 hPa | 0 mm | - | 153 W/m² | - |
| 1777731427 | 10.56° C | 59% | 1016.8 hPa | 0 mm | - | 149 W/m² | - |
| 1777731125 | 10.56° C | 60% | 1016.9 hPa | 0 mm | - | 143 W/m² | - |
| 1777730519 | 10.56° C | 61% | 1016.7 hPa | 0 mm | - | 172 W/m² | - |
| 1777730215 | 10° C | 62% | 1017 hPa | 0 mm | - | 129 W/m² | - |
| 1777729912 | 10° C | 62% | 1016.9 hPa | 0 mm | - | 118 W/m² | - |
| 1777729608 | 10° C | 63% | 1016.9 hPa | 0 mm | - | 112 W/m² | - |
| 1777729305 | 10° C | 62% | 1017.1 hPa | 0 mm | - | 115 W/m² | - |
| 1777729002 | 10° C | 62% | 1016.9 hPa | 0 mm | - | 114 W/m² | - |
* Rain latest hour (hover to see other rain measurements)
** Current wind speed in m/s (hover to see current wind gust speed)